sensor_id;sensor_type;location;lat;lon;timestamp;temperature;humidity
7234;DHT22;3658;47.992;10.158;2023-03-23T00:00:54;21.40;37.30
7234;DHT22;3658;47.992;10.158;2023-03-23T00:03:21;21.40;37.40
7234;DHT22;3658;47.992;10.158;2023-03-23T00:05:51;21.40;37.40
7234;DHT22;3658;47.992;10.158;2023-03-23T00:08:19;21.40;37.50
7234;DHT22;3658;47.992;10.158;2023-03-23T00:10:48;21.40;37.50
7234;DHT22;3658;47.992;10.158;2023-03-23T00:13:19;21.40;37.50
7234;DHT22;3658;47.992;10.158;2023-03-23T00:15:47;21.40;37.50
7234;DHT22;3658;47.992;10.158;2023-03-23T00:18:15;21.40;37.50
7234;DHT22;3658;47.992;10.158;2023-03-23T00:20:47;21.40;37.60
7234;DHT22;3658;47.992;10.158;2023-03-23T00:23:15;21.40;37.60
7234;DHT22;3658;47.992;10.158;2023-03-23T00:25:45;21.40;37.70
7234;DHT22;3658;47.992;10.158;2023-03-23T00:28:13;21.40;37.60
7234;DHT22;3658;47.992;10.158;2023-03-23T00:30:42;21.40;37.50
7234;DHT22;3658;47.992;10.158;2023-03-23T00:33:11;21.40;37.50
7234;DHT22;3658;47.992;10.158;2023-03-23T00:35:40;21.40;37.50
7234;DHT22;3658;47.992;10.158;2023-03-23T00:38:10;21.40;37.50
7234;DHT22;3658;47.992;10.158;2023-03-23T00:40:38;21.40;37.30
7234;DHT22;3658;47.992;10.158;2023-03-23T00:43:04;21.40;37.30
7234;DHT22;3658;47.992;10.158;2023-03-23T00:45:31;21.40;37.30
7234;DHT22;3658;47.992;10.158;2023-03-23T00:48:01;21.40;37.20
7234;DHT22;3658;47.992;10.158;2023-03-23T00:50:30;21.40;37.30
7234;DHT22;3658;47.992;10.158;2023-03-23T00:52:57;21.40;37.20
7234;DHT22;3658;47.992;10.158;2023-03-23T00:55:24;21.40;37.20
7234;DHT22;3658;47.992;10.158;2023-03-23T00:57:52;21.40;37.20
7234;DHT22;3658;47.992;10.158;2023-03-23T01:00:19;21.40;37.20
7234;DHT22;3658;47.992;10.158;2023-03-23T01:02:48;21.30;37.10
7234;DHT22;3658;47.992;10.158;2023-03-23T01:05:18;21.40;37.20
7234;DHT22;3658;47.992;10.158;2023-03-23T01:07:45;21.40;37.20
7234;DHT22;3658;47.992;10.158;2023-03-23T01:10:14;21.40;37.20
7234;DHT22;3658;47.992;10.158;2023-03-23T01:12:44;21.40;37.10
7234;DHT22;3658;47.992;10.158;2023-03-23T01:15:15;21.40;37.00
7234;DHT22;3658;47.992;10.158;2023-03-23T01:17:42;21.40;37.00
7234;DHT22;3658;47.992;10.158;2023-03-23T01:20:10;21.40;37.00
7234;DHT22;3658;47.992;10.158;2023-03-23T01:22:39;21.40;37.00
7234;DHT22;3658;47.992;10.158;2023-03-23T01:25:09;21.40;37.00
7234;DHT22;3658;47.992;10.158;2023-03-23T01:27:39;21.40;37.00
7234;DHT22;3658;47.992;10.158;2023-03-23T01:30:11;21.40;37.00
7234;DHT22;3658;47.992;10.158;2023-03-23T01:32:42;21.40;37.00
7234;DHT22;3658;47.992;10.158;2023-03-23T01:35:09;21.40;37.00
7234;DHT22;3658;47.992;10.158;2023-03-23T01:37:36;21.40;37.00
7234;DHT22;3658;47.992;10.158;2023-03-23T01:40:06;21.40;37.00
7234;DHT22;3658;47.992;10.158;2023-03-23T01:42:35;21.40;37.00
7234;DHT22;3658;47.992;10.158;2023-03-23T01:45:28;21.40;37.00
7234;DHT22;3658;47.992;10.158;2023-03-23T01:48:00;21.40;36.90
7234;DHT22;3658;47.992;10.158;2023-03-23T01:50:30;21.40;37.00
7234;DHT22;3658;47.992;10.158;2023-03-23T01:53:02;21.40;36.90
7234;DHT22;3658;47.992;10.158;2023-03-23T01:55:31;21.40;36.90
7234;DHT22;3658;47.992;10.158;2023-03-23T01:57:58;21.40;36.80
7234;DHT22;3658;47.992;10.158;2023-03-23T02:00:25;21.40;36.80
7234;DHT22;3658;47.992;10.158;2023-03-23T02:02:53;21.40;36.80
7234;DHT22;3658;47.992;10.158;2023-03-23T02:05:26;21.40;36.80
7234;DHT22;3658;47.992;10.158;2023-03-23T02:07:57;21.40;36.80
7234;DHT22;3658;47.992;10.158;2023-03-23T02:10:31;21.40;36.80
7234;DHT22;3658;47.992;10.158;2023-03-23T02:12:58;21.40;36.80
7234;DHT22;3658;47.992;10.158;2023-03-23T02:15:29;21.40;36.80
7234;DHT22;3658;47.992;10.158;2023-03-23T02:18:03;21.40;36.80
7234;DHT22;3658;47.992;10.158;2023-03-23T02:20:54;21.40;36.80
7234;DHT22;3658;47.992;10.158;2023-03-23T02:23:58;21.40;36.80
7234;DHT22;3658;47.992;10.158;2023-03-23T02:26:41;21.40;36.80
7234;DHT22;3658;47.992;10.158;2023-03-23T02:29:43;21.40;36.80
7234;DHT22;3658;47.992;10.158;2023-03-23T02:32:21;21.40;36.70
7234;DHT22;3658;47.992;10.158;2023-03-23T02:34:57;21.40;36.80
7234;DHT22;3658;47.992;10.158;2023-03-23T02:37:29;21.40;36.80
7234;DHT22;3658;47.992;10.158;2023-03-23T02:40:02;21.40;36.70
7234;DHT22;3658;47.992;10.158;2023-03-23T02:42:36;21.40;36.70
7234;DHT22;3658;47.992;10.158;2023-03-23T02:45:08;21.40;36.70
7234;DHT22;3658;47.992;10.158;2023-03-23T02:47:38;21.40;36.70
7234;DHT22;3658;47.992;10.158;2023-03-23T02:50:10;21.40;36.70
7234;DHT22;3658;47.992;10.158;2023-03-23T02:52:40;21.40;36.70
7234;DHT22;3658;47.992;10.158;2023-03-23T02:55:09;21.40;36.70
7234;DHT22;3658;47.992;10.158;2023-03-23T02:57:40;21.40;36.70
7234;DHT22;3658;47.992;10.158;2023-03-23T03:00:11;21.40;36.70
7234;DHT22;3658;47.992;10.158;2023-03-23T03:02:41;21.40;36.80
7234;DHT22;3658;47.992;10.158;2023-03-23T03:05:17;21.40;36.70
7234;DHT22;3658;47.992;10.158;2023-03-23T03:10:48;21.40;36.70
7234;DHT22;3658;47.992;10.158;2023-03-23T03:13:25;21.40;36.70
7234;DHT22;3658;47.992;10.158;2023-03-23T03:15:58;21.40;36.70
7234;DHT22;3658;47.992;10.158;2023-03-23T03:18:30;21.40;36.60
7234;DHT22;3658;47.992;10.158;2023-03-23T03:21:02;21.40;36.60
7234;DHT22;3658;47.992;10.158;2023-03-23T03:23:32;21.40;36.60
7234;DHT22;3658;47.992;10.158;2023-03-23T03:26:01;21.40;36.60
7234;DHT22;3658;47.992;10.158;2023-03-23T03:28:31;21.40;37.20
7234;DHT22;3658;47.992;10.158;2023-03-23T03:31:02;21.40;36.60
7234;DHT22;3658;47.992;10.158;2023-03-23T03:33:30;21.40;36.70
7234;DHT22;3658;47.992;10.158;2023-03-23T03:36:02;21.40;36.60
7234;DHT22;3658;47.992;10.158;2023-03-23T03:38:29;21.40;36.60
7234;DHT22;3658;47.992;10.158;2023-03-23T03:40:56;21.40;36.70
7234;DHT22;3658;47.992;10.158;2023-03-23T03:43:23;21.40;36.60
7234;DHT22;3658;47.992;10.158;2023-03-23T03:45:50;21.40;36.70
7234;DHT22;3658;47.992;10.158;2023-03-23T03:48:17;21.40;36.60
7234;DHT22;3658;47.992;10.158;2023-03-23T03:50:44;21.40;36.60
7234;DHT22;3658;47.992;10.158;2023-03-23T03:53:13;21.40;36.60
7234;DHT22;3658;47.992;10.158;2023-03-23T03:55:40;21.40;36.70
7234;DHT22;3658;47.992;10.158;2023-03-23T03:58:11;21.40;36.60
7234;DHT22;3658;47.992;10.158;2023-03-23T04:00:38;21.40;36.60
7234;DHT22;3658;47.992;10.158;2023-03-23T04:03:07;21.40;36.60
7234;DHT22;3658;47.992;10.158;2023-03-23T04:05:34;21.40;36.70
7234;DHT22;3658;47.992;10.158;2023-03-23T04:08:02;21.40;36.60
7234;DHT22;3658;47.992;10.158;2023-03-23T04:10:31;21.40;36.60
7234;DHT22;3658;47.992;10.158;2023-03-23T04:12:59;21.40;36.60
7234;DHT22;3658;47.992;10.158;2023-03-23T04:15:26;21.40;36.60
7234;DHT22;3658;47.992;10.158;2023-03-23T04:17:53;21.40;36.70
7234;DHT22;3658;47.992;10.158;2023-03-23T04:20:22;21.40;36.60
7234;DHT22;3658;47.992;10.158;2023-03-23T04:22:50;21.40;36.70
7234;DHT22;3658;47.992;10.158;2023-03-23T04:25:22;21.40;36.70
7234;DHT22;3658;47.992;10.158;2023-03-23T04:27:51;21.40;36.70
7234;DHT22;3658;47.992;10.158;2023-03-23T04:30:20;21.40;36.70
7234;DHT22;3658;47.992;10.158;2023-03-23T04:32:49;21.40;36.70
7234;DHT22;3658;47.992;10.158;2023-03-23T04:35:18;21.40;36.60
7234;DHT22;3658;47.992;10.158;2023-03-23T04:37:46;21.40;36.60
7234;DHT22;3658;47.992;10.158;2023-03-23T04:40:15;21.40;36.70
7234;DHT22;3658;47.992;10.158;2023-03-23T04:42:43;21.40;36.60
7234;DHT22;3658;47.992;10.158;2023-03-23T04:45:14;21.40;36.70
7234;DHT22;3658;47.992;10.158;2023-03-23T04:47:42;21.40;36.60
7234;DHT22;3658;47.992;10.158;2023-03-23T04:50:19;21.40;36.70
7234;DHT22;3658;47.992;10.158;2023-03-23T04:52:47;21.40;36.60
7234;DHT22;3658;47.992;10.158;2023-03-23T04:55:18;21.40;36.60
7234;DHT22;3658;47.992;10.158;2023-03-23T04:57:45;21.40;36.60
7234;DHT22;3658;47.992;10.158;2023-03-23T05:00:15;21.40;36.60
7234;DHT22;3658;47.992;10.158;2023-03-23T05:02:42;21.40;36.60
7234;DHT22;3658;47.992;10.158;2023-03-23T05:05:11;21.40;36.60
7234;DHT22;3658;47.992;10.158;2023-03-23T05:07:39;21.40;36.70
7234;DHT22;3658;47.992;10.158;2023-03-23T05:10:09;21.40;36.60
7234;DHT22;3658;47.992;10.158;2023-03-23T05:12:36;21.40;36.60
7234;DHT22;3658;47.992;10.158;2023-03-23T05:15:04;21.40;36.60
7234;DHT22;3658;47.992;10.158;2023-03-23T05:17:33;21.40;36.60
7234;DHT22;3658;47.992;10.158;2023-03-23T05:20:02;21.40;36.60
7234;DHT22;3658;47.992;10.158;2023-03-23T05:22:30;21.40;36.70
7234;DHT22;3658;47.992;10.158;2023-03-23T05:24:58;21.40;36.60
7234;DHT22;3658;47.992;10.158;2023-03-23T05:27:25;21.40;36.60
7234;DHT22;3658;47.992;10.158;2023-03-23T05:29:53;21.40;36.60
7234;DHT22;3658;47.992;10.158;2023-03-23T05:32:20;21.40;36.60
7234;DHT22;3658;47.992;10.158;2023-03-23T05:34:56;21.40;36.60
7234;DHT22;3658;47.992;10.158;2023-03-23T05:37:24;21.40;36.60
7234;DHT22;3658;47.992;10.158;2023-03-23T05:39:52;21.40;36.60
7234;DHT22;3658;47.992;10.158;2023-03-23T05:42:21;21.40;36.60
7234;DHT22;3658;47.992;10.158;2023-03-23T05:44:48;21.40;36.70
7234;DHT22;3658;47.992;10.158;2023-03-23T05:47:17;21.40;36.60
7234;DHT22;3658;47.992;10.158;2023-03-23T05:49:44;21.40;36.60
7234;DHT22;3658;47.992;10.158;2023-03-23T05:52:13;21.40;36.70
7234;DHT22;3658;47.992;10.158;2023-03-23T05:54:40;21.40;36.60
7234;DHT22;3658;47.992;10.158;2023-03-23T05:57:07;21.40;36.70
7234;DHT22;3658;47.992;10.158;2023-03-23T05:59:34;21.40;36.70
7234;DHT22;3658;47.992;10.158;2023-03-23T06:02:01;21.40;36.70
7234;DHT22;3658;47.992;10.158;2023-03-23T06:04:28;21.40;36.60
7234;DHT22;3658;47.992;10.158;2023-03-23T06:06:55;21.40;36.60
7234;DHT22;3658;47.992;10.158;2023-03-23T06:09:24;21.40;36.60
7234;DHT22;3658;47.992;10.158;2023-03-23T06:11:51;21.40;36.60
7234;DHT22;3658;47.992;10.158;2023-03-23T06:14:18;21.40;36.70
7234;DHT22;3658;47.992;10.158;2023-03-23T06:16:45;21.40;36.60
7234;DHT22;3658;47.992;10.158;2023-03-23T06:19:12;21.40;36.60
7234;DHT22;3658;47.992;10.158;2023-03-23T06:21:40;21.40;36.60
7234;DHT22;3658;47.992;10.158;2023-03-23T06:24:07;21.40;36.70
7234;DHT22;3658;47.992;10.158;2023-03-23T06:26:37;21.40;36.60
7234;DHT22;3658;47.992;10.158;2023-03-23T06:29:07;21.40;36.60
7234;DHT22;3658;47.992;10.158;2023-03-23T06:31:38;21.40;36.70
7234;DHT22;3658;47.992;10.158;2023-03-23T06:34:06;21.40;36.60
7234;DHT22;3658;47.992;10.158;2023-03-23T06:36:33;21.40;36.60
7234;DHT22;3658;47.992;10.158;2023-03-23T06:39:01;21.40;36.60
7234;DHT22;3658;47.992;10.158;2023-03-23T06:41:30;21.40;36.60
7234;DHT22;3658;47.992;10.158;2023-03-23T06:43:58;21.40;36.60
7234;DHT22;3658;47.992;10.158;2023-03-23T06:46:26;21.40;36.60
7234;DHT22;3658;47.992;10.158;2023-03-23T06:48:53;21.40;36.70
7234;DHT22;3658;47.992;10.158;2023-03-23T06:51:20;21.40;36.70
7234;DHT22;3658;47.992;10.158;2023-03-23T06:53:47;21.40;36.80
7234;DHT22;3658;47.992;10.158;2023-03-23T06:56:15;21.40;37.20
7234;DHT22;3658;47.992;10.158;2023-03-23T06:58:43;21.40;37.50
7234;DHT22;3658;47.992;10.158;2023-03-23T07:01:19;21.40;37.50
7234;DHT22;3658;47.992;10.158;2023-03-23T07:03:46;21.40;37.70
7234;DHT22;3658;47.992;10.158;2023-03-23T07:06:14;21.40;38.00
7234;DHT22;3658;47.992;10.158;2023-03-23T07:08:42;21.50;38.40
7234;DHT22;3658;47.992;10.158;2023-03-23T07:11:09;21.50;38.60
7234;DHT22;3658;47.992;10.158;2023-03-23T07:13:36;21.50;39.30
7234;DHT22;3658;47.992;10.158;2023-03-23T07:16:05;21.50;38.80
7234;DHT22;3658;47.992;10.158;2023-03-23T07:18:34;21.50;38.80
7234;DHT22;3658;47.992;10.158;2023-03-23T07:21:01;21.50;38.80
7234;DHT22;3658;47.992;10.158;2023-03-23T07:23:29;21.50;38.90
7234;DHT22;3658;47.992;10.158;2023-03-23T07:25:56;21.60;39.00
7234;DHT22;3658;47.992;10.158;2023-03-23T07:28:23;21.60;39.00
7234;DHT22;3658;47.992;10.158;2023-03-23T07:30:51;21.60;39.00
7234;DHT22;3658;47.992;10.158;2023-03-23T07:33:18;21.60;39.00
7234;DHT22;3658;47.992;10.158;2023-03-23T07:35:47;21.50;38.80
7234;DHT22;3658;47.992;10.158;2023-03-23T07:38:14;21.50;38.70
7234;DHT22;3658;47.992;10.158;2023-03-23T07:40:41;21.60;38.80
7234;DHT22;3658;47.992;10.158;2023-03-23T07:43:08;21.60;38.90
7234;DHT22;3658;47.992;10.158;2023-03-23T07:45:35;21.60;38.80
7234;DHT22;3658;47.992;10.158;2023-03-23T07:48:02;21.60;38.90
7234;DHT22;3658;47.992;10.158;2023-03-23T07:50:31;21.60;38.90
7234;DHT22;3658;47.992;10.158;2023-03-23T07:52:59;21.60;39.00
7234;DHT22;3658;47.992;10.158;2023-03-23T07:55:27;21.60;38.90
7234;DHT22;3658;47.992;10.158;2023-03-23T07:57:54;21.60;38.90
7234;DHT22;3658;47.992;10.158;2023-03-23T08:00:23;21.60;38.90
7234;DHT22;3658;47.992;10.158;2023-03-23T08:02:51;21.60;38.80
7234;DHT22;3658;47.992;10.158;2023-03-23T08:05:19;21.60;38.80
7234;DHT22;3658;47.992;10.158;2023-03-23T08:07:47;21.60;39.00
7234;DHT22;3658;47.992;10.158;2023-03-23T08:10:16;21.60;39.00
7234;DHT22;3658;47.992;10.158;2023-03-23T08:12:45;21.60;39.00
7234;DHT22;3658;47.992;10.158;2023-03-23T08:15:13;21.60;38.90
7234;DHT22;3658;47.992;10.158;2023-03-23T08:17:41;21.60;38.90
7234;DHT22;3658;47.992;10.158;2023-03-23T08:20:10;21.60;38.90
7234;DHT22;3658;47.992;10.158;2023-03-23T08:22:39;21.60;38.80
7234;DHT22;3658;47.992;10.158;2023-03-23T08:25:09;21.60;38.80
7234;DHT22;3658;47.992;10.158;2023-03-23T08:27:38;21.60;38.80
7234;DHT22;3658;47.992;10.158;2023-03-23T08:30:10;21.70;38.80
7234;DHT22;3658;47.992;10.158;2023-03-23T08:32:38;21.70;38.90
7234;DHT22;3658;47.992;10.158;2023-03-23T08:35:06;21.70;39.00
7234;DHT22;3658;47.992;10.158;2023-03-23T08:37:34;21.60;38.80
7234;DHT22;3658;47.992;10.158;2023-03-23T08:40:02;21.70;39.10
7234;DHT22;3658;47.992;10.158;2023-03-23T08:42:34;21.70;38.90
7234;DHT22;3658;47.992;10.158;2023-03-23T08:45:03;21.70;38.90
7234;DHT22;3658;47.992;10.158;2023-03-23T08:47:31;21.70;38.80
7234;DHT22;3658;47.992;10.158;2023-03-23T08:49:58;21.70;38.80
7234;DHT22;3658;47.992;10.158;2023-03-23T08:52:25;21.70;38.90
7234;DHT22;3658;47.992;10.158;2023-03-23T08:54:52;21.70;38.90
7234;DHT22;3658;47.992;10.158;2023-03-23T08:57:19;21.70;38.80
7234;DHT22;3658;47.992;10.158;2023-03-23T08:59:47;21.70;38.80
7234;DHT22;3658;47.992;10.158;2023-03-23T09:02:15;21.70;38.80
7234;DHT22;3658;47.992;10.158;2023-03-23T09:04:43;21.70;38.70
7234;DHT22;3658;47.992;10.158;2023-03-23T09:07:11;21.70;39.00
7234;DHT22;3658;47.992;10.158;2023-03-23T09:09:41;21.70;39.10
7234;DHT22;3658;47.992;10.158;2023-03-23T09:12:09;21.80;39.10
7234;DHT22;3658;47.992;10.158;2023-03-23T09:14:36;21.80;39.00
7234;DHT22;3658;47.992;10.158;2023-03-23T09:17:04;21.80;39.00
7234;DHT22;3658;47.992;10.158;2023-03-23T09:19:33;21.80;39.00
7234;DHT22;3658;47.992;10.158;2023-03-23T09:22:00;21.70;38.90
7234;DHT22;3658;47.992;10.158;2023-03-23T09:24:28;21.70;39.00
7234;DHT22;3658;47.992;10.158;2023-03-23T09:26:55;21.80;39.20
7234;DHT22;3658;47.992;10.158;2023-03-23T09:29:24;21.80;39.20
7234;DHT22;3658;47.992;10.158;2023-03-23T09:31:52;21.80;39.10
7234;DHT22;3658;47.992;10.158;2023-03-23T09:34:19;21.70;39.00
7234;DHT22;3658;47.992;10.158;2023-03-23T09:36:48;21.70;39.00
7234;DHT22;3658;47.992;10.158;2023-03-23T09:39:15;21.70;39.10
7234;DHT22;3658;47.992;10.158;2023-03-23T09:41:59;21.80;39.00
7234;DHT22;3658;47.992;10.158;2023-03-23T09:44:37;21.80;39.20
7234;DHT22;3658;47.992;10.158;2023-03-23T09:47:12;21.80;39.20
7234;DHT22;3658;47.992;10.158;2023-03-23T09:49:45;21.80;39.20
7234;DHT22;3658;47.992;10.158;2023-03-23T09:52:18;21.80;39.10
7234;DHT22;3658;47.992;10.158;2023-03-23T09:54:47;21.80;39.10
7234;DHT22;3658;47.992;10.158;2023-03-23T09:57:24;21.80;39.20
7234;DHT22;3658;47.992;10.158;2023-03-23T09:59:58;21.80;39.20
7234;DHT22;3658;47.992;10.158;2023-03-23T10:02:34;21.70;39.10
7234;DHT22;3658;47.992;10.158;2023-03-23T10:05:22;21.70;39.10
7234;DHT22;3658;47.992;10.158;2023-03-23T10:07:51;21.80;39.20
7234;DHT22;3658;47.992;10.158;2023-03-23T10:10:18;21.70;39.20
7234;DHT22;3658;47.992;10.158;2023-03-23T10:12:49;21.70;39.20
7234;DHT22;3658;47.992;10.158;2023-03-23T10:15:21;21.70;39.30
7234;DHT22;3658;47.992;10.158;2023-03-23T10:17:55;21.70;39.20
7234;DHT22;3658;47.992;10.158;2023-03-23T10:20:41;21.80;39.40
7234;DHT22;3658;47.992;10.158;2023-03-23T10:23:20;21.70;39.30
7234;DHT22;3658;47.992;10.158;2023-03-23T10:25:53;21.80;39.40
7234;DHT22;3658;47.992;10.158;2023-03-23T10:28:32;21.80;39.30
7234;DHT22;3658;47.992;10.158;2023-03-23T10:31:00;21.80;39.30
7234;DHT22;3658;47.992;10.158;2023-03-23T10:33:30;21.80;39.20
7234;DHT22;3658;47.992;10.158;2023-03-23T10:36:03;21.80;39.40
7234;DHT22;3658;47.992;10.158;2023-03-23T10:38:36;21.80;39.30
7234;DHT22;3658;47.992;10.158;2023-03-23T10:41:06;21.80;39.30
7234;DHT22;3658;47.992;10.158;2023-03-23T10:43:37;21.80;39.30
7234;DHT22;3658;47.992;10.158;2023-03-23T10:46:14;21.80;39.90
7234;DHT22;3658;47.992;10.158;2023-03-23T10:48:43;21.80;39.30
7234;DHT22;3658;47.992;10.158;2023-03-23T10:51:17;21.80;39.30
7234;DHT22;3658;47.992;10.158;2023-03-23T10:53:51;21.80;39.30
7234;DHT22;3658;47.992;10.158;2023-03-23T10:56:24;21.80;39.30
7234;DHT22;3658;47.992;10.158;2023-03-23T10:58:53;21.90;39.50
7234;DHT22;3658;47.992;10.158;2023-03-23T11:01:32;21.80;39.30
7234;DHT22;3658;47.992;10.158;2023-03-23T11:04:00;21.80;39.30
7234;DHT22;3658;47.992;10.158;2023-03-23T11:06:29;21.80;39.30
7234;DHT22;3658;47.992;10.158;2023-03-23T11:09:01;21.80;39.30
7234;DHT22;3658;47.992;10.158;2023-03-23T11:11:31;21.80;39.20
7234;DHT22;3658;47.992;10.158;2023-03-23T11:14:00;21.90;39.30
7234;DHT22;3658;47.992;10.158;2023-03-23T11:16:29;21.90;39.20
7234;DHT22;3658;47.992;10.158;2023-03-23T11:18:58;21.90;39.20
7234;DHT22;3658;47.992;10.158;2023-03-23T11:21:27;21.90;39.30
7234;DHT22;3658;47.992;10.158;2023-03-23T11:23:56;21.80;39.20
7234;DHT22;3658;47.992;10.158;2023-03-23T11:26:28;21.80;39.10
7234;DHT22;3658;47.992;10.158;2023-03-23T11:28:58;21.90;39.20
7234;DHT22;3658;47.992;10.158;2023-03-23T11:31:29;21.90;39.20
7234;DHT22;3658;47.992;10.158;2023-03-23T11:33:59;21.80;39.10
7234;DHT22;3658;47.992;10.158;2023-03-23T11:36:35;21.90;39.30
7234;DHT22;3658;47.992;10.158;2023-03-23T11:39:03;21.80;39.30
7234;DHT22;3658;47.992;10.158;2023-03-23T11:41:37;21.80;39.30
7234;DHT22;3658;47.992;10.158;2023-03-23T11:44:10;21.80;39.20
7234;DHT22;3658;47.992;10.158;2023-03-23T11:46:45;21.80;39.10
7234;DHT22;3658;47.992;10.158;2023-03-23T11:49:22;21.80;39.10
7234;DHT22;3658;47.992;10.158;2023-03-23T11:51:55;21.80;39.10
7234;DHT22;3658;47.992;10.158;2023-03-23T11:54:28;21.80;39.10
7234;DHT22;3658;47.992;10.158;2023-03-23T11:56:58;21.80;39.10
7234;DHT22;3658;47.992;10.158;2023-03-23T11:59:31;21.80;39.10
7234;DHT22;3658;47.992;10.158;2023-03-23T12:02:04;21.80;39.10
7234;DHT22;3658;47.992;10.158;2023-03-23T12:04:54;21.80;39.00
7234;DHT22;3658;47.992;10.158;2023-03-23T12:07:39;21.80;39.10
7234;DHT22;3658;47.992;10.158;2023-03-23T12:10:23;21.80;39.00
7234;DHT22;3658;47.992;10.158;2023-03-23T12:13:01;21.80;39.30
7234;DHT22;3658;47.992;10.158;2023-03-23T12:15:34;21.80;39.30
7234;DHT22;3658;47.992;10.158;2023-03-23T12:18:08;21.90;39.60
7234;DHT22;3658;47.992;10.158;2023-03-23T12:20:47;21.90;39.70
7234;DHT22;3658;47.992;10.158;2023-03-23T12:23:22;22.00;39.90
7234;DHT22;3658;47.992;10.158;2023-03-23T12:26:05;21.90;39.80
7234;DHT22;3658;47.992;10.158;2023-03-23T12:31:32;21.90;39.90
7234;DHT22;3658;47.992;10.158;2023-03-23T12:34:09;21.90;39.80
7234;DHT22;3658;47.992;10.158;2023-03-23T12:36:49;21.90;39.80
7234;DHT22;3658;47.992;10.158;2023-03-23T12:42:38;21.90;39.80
7234;DHT22;3658;47.992;10.158;2023-03-23T12:45:18;21.90;39.80
7234;DHT22;3658;47.992;10.158;2023-03-23T12:47:50;21.90;39.80
7234;DHT22;3658;47.992;10.158;2023-03-23T12:50:23;21.90;39.80
7234;DHT22;3658;47.992;10.158;2023-03-23T12:52:57;21.90;39.80
7234;DHT22;3658;47.992;10.158;2023-03-23T12:55:30;21.90;39.70
7234;DHT22;3658;47.992;10.158;2023-03-23T12:58:02;22.00;39.80
7234;DHT22;3658;47.992;10.158;2023-03-23T13:00:46;21.90;39.60
7234;DHT22;3658;47.992;10.158;2023-03-23T13:03:19;22.00;39.90
7234;DHT22;3658;47.992;10.158;2023-03-23T13:05:50;21.90;39.80
7234;DHT22;3658;47.992;10.158;2023-03-23T13:08:22;21.90;39.80
7234;DHT22;3658;47.992;10.158;2023-03-23T13:10:51;21.90;39.80
7234;DHT22;3658;47.992;10.158;2023-03-23T13:13:23;21.90;39.80
7234;DHT22;3658;47.992;10.158;2023-03-23T13:16:10;22.00;39.90
7234;DHT22;3658;47.992;10.158;2023-03-23T13:18:47;21.90;39.90
7234;DHT22;3658;47.992;10.158;2023-03-23T13:21:19;21.90;39.80
7234;DHT22;3658;47.992;10.158;2023-03-23T13:23:52;21.90;39.90
7234;DHT22;3658;47.992;10.158;2023-03-23T13:26:22;21.90;39.90
7234;DHT22;3658;47.992;10.158;2023-03-23T13:28:56;21.90;39.90
7234;DHT22;3658;47.992;10.158;2023-03-23T13:31:27;21.90;39.90
7234;DHT22;3658;47.992;10.158;2023-03-23T13:34:03;21.90;39.90
7234;DHT22;3658;47.992;10.158;2023-03-23T13:36:33;21.90;39.90
7234;DHT22;3658;47.992;10.158;2023-03-23T13:39:04;21.90;39.90
7234;DHT22;3658;47.992;10.158;2023-03-23T13:41:46;21.90;39.90
7234;DHT22;3658;47.992;10.158;2023-03-23T13:44:24;21.90;39.90
7234;DHT22;3658;47.992;10.158;2023-03-23T13:47:08;21.90;39.90
7234;DHT22;3658;47.992;10.158;2023-03-23T13:49:46;21.90;39.80
7234;DHT22;3658;47.992;10.158;2023-03-23T13:52:17;21.90;39.90
7234;DHT22;3658;47.992;10.158;2023-03-23T13:54:46;21.90;40.00
7234;DHT22;3658;47.992;10.158;2023-03-23T13:57:35;21.90;39.90
7234;DHT22;3658;47.992;10.158;2023-03-23T14:00:24;21.90;40.00
7234;DHT22;3658;47.992;10.158;2023-03-23T14:02:59;21.90;40.00
7234;DHT22;3658;47.992;10.158;2023-03-23T14:05:34;21.80;40.00
7234;DHT22;3658;47.992;10.158;2023-03-23T14:08:03;21.90;40.20
7234;DHT22;3658;47.992;10.158;2023-03-23T14:10:39;21.90;40.20
7234;DHT22;3658;47.992;10.158;2023-03-23T14:13:15;21.90;40.10
7234;DHT22;3658;47.992;10.158;2023-03-23T14:15:44;21.80;40.20
7234;DHT22;3658;47.992;10.158;2023-03-23T14:18:23;21.80;40.70
7234;DHT22;3658;47.992;10.158;2023-03-23T14:20:52;21.90;40.20
7234;DHT22;3658;47.992;10.158;2023-03-23T14:23:19;21.80;40.00
7234;DHT22;3658;47.992;10.158;2023-03-23T14:25:55;21.80;40.00
7234;DHT22;3658;47.992;10.158;2023-03-23T14:28:23;21.90;40.00
7234;DHT22;3658;47.992;10.158;2023-03-23T14:30:54;21.90;39.90
7234;DHT22;3658;47.992;10.158;2023-03-23T14:33:25;21.90;39.90
7234;DHT22;3658;47.992;10.158;2023-03-23T14:35:52;21.90;39.90
7234;DHT22;3658;47.992;10.158;2023-03-23T14:38:21;21.90;39.80
7234;DHT22;3658;47.992;10.158;2023-03-23T14:40:52;21.90;39.80
7234;DHT22;3658;47.992;10.158;2023-03-23T14:43:22;21.90;39.80
7234;DHT22;3658;47.992;10.158;2023-03-23T14:45:52;21.90;39.80
7234;DHT22;3658;47.992;10.158;2023-03-23T14:48:20;21.90;39.80
7234;DHT22;3658;47.992;10.158;2023-03-23T14:50:55;21.90;39.70
7234;DHT22;3658;47.992;10.158;2023-03-23T14:53:24;21.90;39.70
7234;DHT22;3658;47.992;10.158;2023-03-23T14:55:53;21.90;39.80
7234;DHT22;3658;47.992;10.158;2023-03-23T14:58:22;21.90;39.80
7234;DHT22;3658;47.992;10.158;2023-03-23T15:00:54;21.90;39.80
7234;DHT22;3658;47.992;10.158;2023-03-23T15:03:22;21.90;39.70
7234;DHT22;3658;47.992;10.158;2023-03-23T15:05:54;21.90;39.60
7234;DHT22;3658;47.992;10.158;2023-03-23T15:08:24;21.90;39.60
7234;DHT22;3658;47.992;10.158;2023-03-23T15:11:02;21.90;39.60
7234;DHT22;3658;47.992;10.158;2023-03-23T15:13:30;21.90;39.60
7234;DHT22;3658;47.992;10.158;2023-03-23T15:16:03;21.90;39.70
7234;DHT22;3658;47.992;10.158;2023-03-23T15:18:34;21.90;39.60
7234;DHT22;3658;47.992;10.158;2023-03-23T15:21:11;21.90;39.70
7234;DHT22;3658;47.992;10.158;2023-03-23T15:23:42;21.90;39.80
7234;DHT22;3658;47.992;10.158;2023-03-23T15:26:29;21.90;39.80
7234;DHT22;3658;47.992;10.158;2023-03-23T15:29:14;21.90;39.90
7234;DHT22;3658;47.992;10.158;2023-03-23T15:31:44;21.90;40.00
7234;DHT22;3658;47.992;10.158;2023-03-23T15:34:19;21.90;39.90
7234;DHT22;3658;47.992;10.158;2023-03-23T15:36:54;21.90;40.00
7234;DHT22;3658;47.992;10.158;2023-03-23T15:39:22;21.80;40.00
7234;DHT22;3658;47.992;10.158;2023-03-23T15:41:50;21.90;40.10
7234;DHT22;3658;47.992;10.158;2023-03-23T15:44:35;21.90;40.10
7234;DHT22;3658;47.992;10.158;2023-03-23T15:47:12;21.90;40.10
7234;DHT22;3658;47.992;10.158;2023-03-23T15:49:39;21.90;40.10
7234;DHT22;3658;47.992;10.158;2023-03-23T15:52:10;21.90;39.90
7234;DHT22;3658;47.992;10.158;2023-03-23T15:54:38;21.80;39.80
7234;DHT22;3658;47.992;10.158;2023-03-23T15:57:05;21.90;40.00
7234;DHT22;3658;47.992;10.158;2023-03-23T15:59:32;21.80;39.80
7234;DHT22;3658;47.992;10.158;2023-03-23T16:01:59;21.80;39.90
7234;DHT22;3658;47.992;10.158;2023-03-23T16:04:26;21.90;39.90
7234;DHT22;3658;47.992;10.158;2023-03-23T16:06:55;21.90;40.10
7234;DHT22;3658;47.992;10.158;2023-03-23T16:09:24;21.80;39.80
7234;DHT22;3658;47.992;10.158;2023-03-23T16:11:52;21.80;40.00
7234;DHT22;3658;47.992;10.158;2023-03-23T16:14:21;21.80;40.00
7234;DHT22;3658;47.992;10.158;2023-03-23T16:16:49;21.90;40.10